AirNav   Air Wisconsin Up To $57,000 Bonus
 
 1662 users online  

2CL1 Brownsville Airport
Brownsville, California, USA

GOING TO BROWNSVILLE?


FAA INFORMATION EFFECTIVE 04 NOVEMBER 2021

Location

FAA Identifier: 2CL1
Lat/Long: 39-27-18.8000N 121-17-29.9000W
39-27.313333N 121-17.498333W
39.4552222,-121.2916389
(estimated)
Elevation: 2120 ft. / 646 m (estimated)
Variation: 16E (1985)
From city: 2 miles SW of BROWNSVILLE, CA
Time zone: UTC -7 (UTC -8 during Standard Time)
Zip code: 95919

Airport Operations

Airport use: Private use. Permission required prior to landing
Activation date: 08/1965
Control tower: no
ARTCC: OAKLAND CENTER
FSS: RANCHO MURIETA FLIGHT SERVICE STATION
Attendance: UNATNDD
Pattern altitude: 2920 ft. MSL
Wind indicator: yes
Segmented circle: yes

Airport Communications

WX ASOS at OVE (15 nm W): 121.425 (530-533-5792)
WX AWOS-3 at GOO (19 nm SE): 121.325 (530-273-0029)

Nearby radio navigation aids

VOR radial/distance  VOR name  Freq  Var
MYVr015/25.1MARYSVILLE VOR/DME110.8016E

Airport Services

Parking: tiedowns
Bottled oxygen: NONE
Bulk oxygen: NONE

Runway Information

Runway 6/24

Dimensions: 2326 x 20 ft. / 709 x 6 m
Surface: asphalt/concrete, in good condition
Operational restrictions: RY 06/24 PAVEMENT NARROW, GRVL EDGES ARE SOFT WHEN WET.
RUNWAY 6  RUNWAY 24
Latitude: 39-27.275892N39-27.349152N
Longitude: 121-17.740448W121-17.255383W
Elevation: 2091.5 ft.2108.4 ft.
Traffic pattern: rightleft
Markings: basic, in good conditionbasic, in good condition
Runway end identifier lights: nono
Obstructions: none
RWY 06 +15' TREES 125' RIGHT, 90' FM THRESHOLD
40 ft. tree, 420 ft. from runway, 5:1 slope to clear
RWY 24 +15 POLE & WIRES 78' LEFT, 96' FM THRESHOLD

Airport Ownership and Management from official FAA records

Ownership: Privately-owned
Owner: SECOND GOLDEN FEATHER NEST LP
8618 NOTTINGHAM PLACE
LA JOLLA, CA 92037-2937
Phone 858-452-9677
OWNER - CHERYL WHITE 8618 NOTTINGHAM PLACE, LA JOLLA, CA. 92037 (800) 984-6789 OR (619) 453-1109.
Manager: STEVEN BURGER
P.O. BOX 779
BROWNSVILLE, CA 95919
Phone 530-675-9918
CELL: (916) 847-6199

Airport Operational Statistics

Aircraft based on the field: 9
Single engine airplanes: 9
    
Aircraft operations: avg 27/week *
71% local general aviation
29% transient general aviation
* for 12-month period ending 30 April 2011

Additional Remarks

TREES SURROUND ARPT ON NORTH, SOUTH, AND EAST. STEEP DROP-OFF TO WEST.
TERRAIN RISES 850' ABV RY ELEV 4000' EAST OF RY END.
LANDINGS, FULL LENGTH, NO MID FIELD TURN AROUND, GROUND SOFT WHEN WET.
FOR CD CTC NORCAL APCH AT 916-361-6874.

Instrument Procedures

There are no published instrument procedures at 2CL1.

Some nearby airports with instrument procedures:

KOVE - Oroville Municipal Airport (15 nm W)
KGOO - Nevada County Airport (19 nm SE)
KBAB - Beale Air Force Base (20 nm S)
KMYV - Yuba County Airport (25 nm SW)
KAUN - Auburn Municipal Airport (32 nm S)
 
Loc | Ops | Rwys | IFR | FBO | Links
Com | Nav | Svcs | Stats | Notes
Area around 2CL1 (Brownsville Airport)
 
Road maps at: MapQuest Bing Google
 
Aerial photo
WARNING: Photo may not be current or correct
Aerial photo of 2CL1 (Brownsville Airport)
Photo taken 10-May-2011
looking north.

Do you have a better or more recent aerial photo of Brownsville Airport that you would like to share? If so, please send us your photo.

 
Sectional chart

 
Airport distance calculator
Flying to Brownsville Airport? Find the distance to fly.

From to 2CL1

Sunrise and sunset
Times for 29-Nov-2021
 Local
(UTC-8)
 Zulu
(UTC)
Morning civil twilight06:3614:36
Sunrise07:0515:05
Sunset16:4200:42
Evening civil twilight17:1101:11

Current date and time
Zulu (UTC)  30-Nov-2021 00:35:00
Local (UTC-8)  29-Nov-2021 16:35:00
 
METAR
KOVE 
15nm W 
292353Z AUTO 00000KT 10SM CLR 19/13 A3012 RMK AO2 SLP200 T01890128 10194 20139 56016
KGOO 
19nm SE 
300015Z AUTO 36003KT 10SM CLR 19/01 A3017 RMK A01
KBAB 
20nm S 
292358Z AUTO 34003KT 10SM CLR 18/12 A3009 RMK AO2 SLP193 T01840117 10191 20134 56018 $
KMYV 
25nm SW 
292353Z AUTO 32003KT 10SM CLR 19/11 A3010 RMK AO2 SLP197 T01890111 10206 20139 56018
KBLU 
29nm E 
292352Z AUTO 32004KT 10SM CLR 17/01 A3028 RMK AO2 SLP194 T01670011 10183 20161 56007
TAF
KBAB 
20nm S 
291900Z 2919/0101 31006KT 9999 SKC QNH3010INS BECMG 3003/3004 03006KT 9999 SKC QNH3011INS BECMG 3009/3010 12006KT 9999 SKC QNH3012INS BECMG 3012/3013 VRB06KT 9000 BR SKC QNH3012INS BECMG 3017/3018 32006KT 9999 NSW SKC QNH3009INS TX18/2923Z TN06/3014Z
NOTAMs
Click for the latest NOTAMs
NOTAMs are issued by the DoD/FAA and will open in a separate window not controlled by AirNav.

 

 
 

Would you like to see your business listed on this page?

 If your business provides an interesting product or service to pilots, flight crews, aircraft, or users of the Brownsville Airport, you should consider listing it here.  To start the listing process, click on the button below
 
Add a business
 

Other Pages about Brownsville Airport

Update a link
 
Copyright © AirNav, LLC. All rights reserved. Privacy Policy  Contact